createdAt,value
2022-11-04T00:00:10.091Z,96892.28
2022-11-04T00:03:11.733Z,96904.78
2022-11-04T00:06:13.626Z,96905.63
2022-11-04T00:09:17.867Z,96918.22
2022-11-04T00:12:25.371Z,96937.06
2022-11-04T00:15:47.218Z,96947.13
2022-11-04T00:18:48.887Z,96945.53
2022-11-04T00:22:09.516Z,96938.72
2022-11-04T00:25:30.518Z,96946.78
2022-11-04T00:28:44.153Z,96944.25
2022-11-04T00:32:06.062Z,96954.16
2022-11-04T00:35:08.721Z,96942.78
2022-11-04T00:38:11.044Z,96937.56
2022-11-04T00:41:28.403Z,96932.41
2022-11-04T00:44:30.031Z,96932.41
2022-11-04T00:47:33.009Z,96937.75
2022-11-04T00:50:34.632Z,96937.88
2022-11-04T00:53:36.157Z,96952.03
2022-11-04T00:56:37.721Z,96959.19
2022-11-04T00:59:39.993Z,96969.00
2022-11-04T01:02:42.981Z,96956.63
2022-11-04T01:05:44.727Z,96938.81
2022-11-04T01:08:46.533Z,96933.50
2022-11-04T01:11:48.025Z,96934.56
2022-11-04T01:14:49.814Z,96946.09
2022-11-04T01:17:52.960Z,96947.91
2022-11-04T01:21:00.431Z,96958.56
2022-11-04T01:24:02.521Z,96960.25
2022-11-04T01:27:04.189Z,96972.63
2022-11-04T01:30:06.455Z,96980.50
2022-11-04T01:33:09.367Z,96983.16
2022-11-04T01:36:11.227Z,96984.88
2022-11-04T01:39:13.386Z,96992.84
2022-11-04T01:42:15.853Z,96983.06
2022-11-04T01:45:19.357Z,96989.25
2022-11-04T01:48:25.230Z,96985.63
2022-11-04T01:51:27.482Z,96990.13
2022-11-04T01:54:29.660Z,96976.78
2022-11-04T01:57:34.884Z,96983.06
2022-11-04T02:00:38.423Z,96984.78
2022-11-04T02:03:47.572Z,96982.97
2022-11-04T02:06:50.616Z,96991.72
2022-11-04T02:09:52.510Z,97010.66
2022-11-04T02:12:54.959Z,97025.69
2022-11-04T02:16:03.646Z,97023.13
2022-11-04T02:19:19.283Z,97019.72
2022-11-04T02:22:31.582Z,97029.00
2022-11-04T02:25:46.679Z,97040.41
2022-11-04T02:28:55.343Z,97036.44
2022-11-04T02:32:03.474Z,97035.03
2022-11-04T02:35:09.723Z,97026.75
2022-11-04T02:38:14.480Z,97007.53
2022-11-04T02:41:21.866Z,97005.44
2022-11-04T02:44:30.026Z,97013.59
2022-11-04T02:47:35.060Z,97013.06
2022-11-04T02:50:42.477Z,97011.47
2022-11-04T02:53:47.856Z,97019.47
2022-11-04T02:56:51.354Z,97023.03
2022-11-04T02:59:55.145Z,97028.69
2022-11-04T03:03:00.675Z,97031.69
2022-11-04T03:06:03.552Z,97034.72
2022-11-04T03:09:05.401Z,97043.66
2022-11-04T03:12:09.587Z,97052.50
2022-11-04T03:15:14.053Z,97045.59
2022-11-04T03:18:19.997Z,97073.91
2022-11-04T03:21:22.591Z,97077.41
2022-11-04T03:24:24.571Z,97079.13
2022-11-04T03:27:30.363Z,97092.53
2022-11-04T03:30:37.922Z,97090.94
2022-11-04T03:33:43.953Z,97097.22
2022-11-04T03:36:45.665Z,97097.38
2022-11-04T03:39:47.441Z,97104.50
2022-11-04T03:42:53.813Z,97109.94
2022-11-04T03:45:55.903Z,97110.03
2022-11-04T03:49:00.422Z,97107.47
2022-11-04T03:52:02.080Z,97120.91
2022-11-04T03:55:04.777Z,97127.06
2022-11-04T03:58:08.532Z,97126.22
2022-11-04T04:01:15.219Z,97135.16
2022-11-04T04:04:21.343Z,97135.16
2022-11-04T04:07:29.777Z,97126.31
2022-11-04T04:10:39.959Z,97137.81
2022-11-04T04:13:45.810Z,97147.66
2022-11-04T04:16:47.650Z,97147.41
2022-11-04T04:19:53.261Z,97146.66
2022-11-04T04:22:57.157Z,97156.34
2022-11-04T04:26:19.729Z,97156.44
2022-11-04T04:29:22.381Z,97164.31
2022-11-04T04:32:26.355Z,97174.09
2022-11-04T04:35:43.842Z,97180.28
2022-11-04T04:39:04.146Z,97185.72
2022-11-04T04:42:24.786Z,97182.09
2022-11-04T04:45:30.396Z,97189.22
2022-11-04T04:48:31.865Z,97193.59
2022-11-04T04:51:36.586Z,97199.66
2022-11-04T04:54:38.040Z,97196.25
2022-11-04T04:57:39.557Z,97212.22
2022-11-04T05:00:41.047Z,97205.19
2022-11-04T05:03:45.284Z,97223.72
2022-11-04T05:06:48.483Z,97226.25
2022-11-04T05:09:50.423Z,97225.50
2022-11-04T05:13:10.585Z,97228.34
2022-11-04T05:16:12.240Z,97226.63
2022-11-04T05:19:14.368Z,97231.09
2022-11-04T05:22:17.249Z,97219.91
2022-11-04T05:25:18.711Z,97228.00
2022-11-04T05:28:20.667Z,97229.78
2022-11-04T05:31:22.391Z,97231.50
2022-11-04T05:34:33.153Z,97226.34
2022-11-04T05:37:36.362Z,97227.13
2022-11-04T05:40:37.833Z,97252.78
2022-11-04T05:43:39.396Z,97251.09
2022-11-04T05:46:41.015Z,97260.94
2022-11-04T05:49:42.639Z,97236.94
2022-11-04T05:52:48.686Z,97241.47
2022-11-04T05:55:50.274Z,97246.78
2022-11-04T05:58:52.002Z,97243.16
2022-11-04T06:01:53.725Z,97228.16
2022-11-04T06:04:55.301Z,97245.06
2022-11-04T06:07:58.361Z,97282.31
2022-11-04T06:10:59.856Z,97291.16
2022-11-04T06:14:01.772Z,97299.13
2022-11-04T06:17:03.800Z,97300.09
2022-11-04T06:20:06.637Z,97304.44
2022-11-04T06:23:09.629Z,97308.91
2022-11-04T06:26:14.959Z,97323.06
2022-11-04T06:29:22.726Z,97323.16
2022-11-04T06:32:24.569Z,97326.78
2022-11-04T06:35:26.181Z,97330.59
2022-11-04T06:38:29.815Z,97330.59
2022-11-04T06:41:31.369Z,97324.41
2022-11-04T06:44:34.501Z,97324.50
2022-11-04T06:47:36.493Z,97323.72
2022-11-04T06:50:37.997Z,97335.31
2022-11-04T06:53:40.858Z,97332.66
2022-11-04T06:56:42.657Z,97341.38
2022-11-04T06:59:44.938Z,97335.16
2022-11-04T07:02:46.719Z,97335.22
2022-11-04T07:05:48.510Z,97333.41
2022-11-04T07:08:52.893Z,97322.75
2022-11-04T07:11:54.517Z,97333.41
2022-11-04T07:14:56.481Z,97328.19
2022-11-04T07:17:58.657Z,97329.03
2022-11-04T07:21:03.385Z,97330.75
2022-11-04T07:24:08.930Z,97332.66
2022-11-04T07:27:10.575Z,97333.50
2022-11-04T07:30:12.336Z,97336.25
2022-11-04T07:33:13.818Z,97338.72
2022-11-04T07:36:17.219Z,97348.59
2022-11-04T07:39:20.215Z,97353.06
2022-11-04T07:42:21.897Z,97362.00
2022-11-04T07:45:23.638Z,97363.72
2022-11-04T07:48:25.239Z,97361.91
2022-11-04T07:51:27.178Z,97364.41
2022-11-04T07:54:30.151Z,97364.41
2022-11-04T07:57:31.604Z,97374.84
2022-11-04T08:00:33.147Z,97385.31
2022-11-04T08:03:35.388Z,97387.88
2022-11-04T08:06:37.152Z,97394.03
2022-11-04T08:09:40.612Z,97396.91
2022-11-04T08:12:42.072Z,97398.59
2022-11-04T08:15:43.608Z,97398.59
2022-11-04T08:18:45.556Z,97392.34
2022-11-04T08:21:47.502Z,97400.41
2022-11-04T08:24:50.497Z,97398.03
2022-11-04T08:27:56.678Z,97398.88
2022-11-04T08:31:03.117Z,97406.00
2022-11-04T08:34:06.284Z,97402.31
2022-11-04T08:37:08.107Z,97406.41
2022-11-04T08:40:11.577Z,97398.06
2022-11-04T08:43:13.532Z,97397.97
2022-11-04T08:46:15.146Z,97405.84
2022-11-04T08:49:21.138Z,97400.72
2022-11-04T08:52:23.872Z,97398.72
2022-11-04T08:55:28.308Z,97408.94
2022-11-04T08:58:29.903Z,97411.13
2022-11-04T09:01:35.877Z,97413.50
2022-11-04T09:04:37.813Z,97409.34
2022-11-04T09:07:39.651Z,97414.13
2022-11-04T09:10:43.683Z,97421.72
2022-11-04T09:13:45.508Z,97426.47
2022-11-04T09:16:47.281Z,97439.03
2022-11-04T09:19:48.868Z,97433.78
2022-11-04T09:22:51.021Z,97435.81
2022-11-04T09:25:55.791Z,97437.72
2022-11-04T09:28:58.219Z,97433.91
2022-11-04T09:31:59.876Z,97433.16
2022-11-04T09:35:01.469Z,97434.00
2022-11-04T09:38:03.159Z,97430.56
2022-11-04T09:41:11.794Z,97432.75
2022-11-04T09:44:19.472Z,97436.94
2022-11-04T09:47:22.416Z,97434.75
2022-11-04T09:50:25.171Z,97429.81
2022-11-04T09:53:28.429Z,97433.13
2022-11-04T09:56:33.309Z,97434.88
2022-11-04T09:59:36.951Z,97428.09
2022-11-04T10:02:46.166Z,97423.81
2022-11-04T10:05:54.889Z,97437.16
2022-11-04T10:09:03.594Z,97434.69
2022-11-04T10:12:13.053Z,97445.50
2022-11-04T10:15:23.142Z,97444.84
2022-11-04T10:18:33.054Z,97454.84
2022-11-04T10:21:40.581Z,97459.41
2022-11-04T10:24:46.522Z,97459.50
2022-11-04T10:27:52.165Z,97456.56
2022-11-04T10:30:54.061Z,97473.97
2022-11-04T10:33:59.462Z,97469.69
2022-11-04T10:37:02.022Z,97483.00
2022-11-04T10:40:15.642Z,97477.31
2022-11-04T10:43:23.031Z,97491.94
2022-11-04T10:46:39.162Z,97489.38
2022-11-04T10:50:00.249Z,97491.66
2022-11-04T10:53:10.577Z,97486.03
2022-11-04T10:56:17.907Z,97488.16
2022-11-04T10:59:24.568Z,97488.06
2022-11-04T11:02:47.401Z,97479.38
2022-11-04T11:05:49.525Z,97483.19
2022-11-04T11:08:51.913Z,97485.72
2022-11-04T11:11:53.617Z,97485.66
2022-11-04T11:14:56.508Z,97476.41
2022-11-04T11:18:00.906Z,97477.41
2022-11-04T11:21:08.124Z,97480.75
2022-11-04T11:24:14.344Z,97476.72
2022-11-04T11:27:22.518Z,97474.22
2022-11-04T11:30:28.360Z,97464.38
2022-11-04T11:33:31.404Z,97465.06
2022-11-04T11:36:34.190Z,97456.97
2022-11-04T11:39:38.210Z,97460.19
2022-11-04T11:42:41.528Z,97453.69
2022-11-04T11:45:49.357Z,97458.78
2022-11-04T11:48:52.127Z,97455.25
2022-11-04T11:51:53.675Z,97455.13
2022-11-04T11:54:57.756Z,97456.19
2022-11-04T12:01:30.525Z,97453.69
2022-11-04T12:11:23.161Z,97461.38
2022-11-04T12:14:30.366Z,97473.03
2022-11-04T12:17:43.238Z,97476.56
2022-11-04T12:20:52.049Z,97472.38
2022-11-04T12:23:56.919Z,97482.69
2022-11-04T12:27:03.736Z,97489.78
2022-11-04T12:30:07.233Z,97481.53
2022-11-04T12:33:18.240Z,97480.59
2022-11-04T12:36:26.818Z,97484.13
2022-11-04T12:39:45.089Z,97488.06
2022-11-04T12:42:56.735Z,97496.09
2022-11-04T12:46:04.058Z,97498.28
2022-11-04T12:49:18.507Z,97501.94
2022-11-04T12:52:30.027Z,97499.66
2022-11-04T12:55:39.540Z,97500.47
2022-11-04T12:58:52.129Z,97505.88
2022-11-04T13:01:56.208Z,97512.47
2022-11-04T13:05:03.296Z,97504.69
2022-11-04T13:08:14.179Z,97509.06
2022-11-04T13:11:23.955Z,97511.66
2022-11-04T13:14:30.346Z,97514.28
2022-11-04T13:17:33.867Z,97512.69
2022-11-04T13:20:43.452Z,97525.75
2022-11-04T13:23:50.894Z,97518.28
2022-11-04T13:26:52.617Z,97526.38
2022-11-04T13:30:03.665Z,97526.19
2022-11-04T13:33:09.227Z,97538.88
2022-11-04T13:36:21.830Z,97532.91
2022-11-04T13:39:25.432Z,97533.13
2022-11-04T13:42:41.950Z,97536.84
2022-11-04T13:45:48.682Z,97536.88
2022-11-04T13:48:58.597Z,97541.28
2022-11-04T13:52:08.718Z,97542.38
2022-11-04T13:55:21.528Z,97547.41
2022-11-04T13:58:25.145Z,97554.78
2022-11-04T14:01:28.284Z,97552.53
2022-11-04T14:04:30.501Z,97556.97
2022-11-04T14:07:46.884Z,97558.53
2022-11-04T14:11:03.730Z,97561.31
2022-11-04T14:14:16.338Z,97569.56
2022-11-04T14:17:41.829Z,97571.69
2022-11-04T14:21:03.834Z,97578.06
2022-11-04T14:24:16.319Z,97583.41
2022-11-04T14:27:26.842Z,97588.31
2022-11-04T14:30:34.563Z,97595.47
2022-11-04T14:33:37.958Z,97596.72
2022-11-04T14:36:40.493Z,97595.47
2022-11-04T14:39:42.642Z,97597.03
2022-11-04T14:42:49.320Z,97609.53
2022-11-04T14:45:55.463Z,97615.72
2022-11-04T14:48:57.925Z,97613.25
2022-11-04T14:52:00.087Z,97609.25
2022-11-04T14:55:03.991Z,97615.00
2022-11-04T14:58:22.173Z,97618.81
2022-11-04T15:01:27.453Z,97612.03
2022-11-04T15:04:32.805Z,97620.16
2022-11-04T15:07:36.332Z,97623.03
2022-11-04T15:10:37.870Z,97623.09
2022-11-04T15:13:44.685Z,97632.91
2022-11-04T15:16:47.963Z,97637.50
2022-11-04T15:19:51.369Z,97650.28
2022-11-04T15:22:53.585Z,97643.31
2022-11-04T15:25:56.091Z,97655.78
2022-11-04T15:28:59.851Z,97644.25
2022-11-04T15:32:05.320Z,97651.50
2022-11-04T15:35:12.391Z,97652.53
2022-11-04T15:38:14.956Z,97655.53
2022-11-04T15:41:38.707Z,97658.22
2022-11-04T15:44:45.511Z,97662.78
2022-11-04T15:47:47.364Z,97664.59
2022-11-04T15:50:52.259Z,97668.13
2022-11-04T15:53:55.600Z,97672.78
2022-11-04T15:57:00.663Z,97680.88
2022-11-04T16:00:06.257Z,97674.84
2022-11-04T16:03:17.500Z,97676.78
2022-11-04T16:06:33.719Z,97681.34
2022-11-04T16:09:45.508Z,97691.25
2022-11-04T16:12:47.222Z,97694.28
2022-11-04T16:15:51.663Z,97698.06
2022-11-04T16:18:54.259Z,97709.78
2022-11-04T16:21:59.830Z,97698.28
2022-11-04T16:25:02.859Z,97706.38
2022-11-04T16:28:04.453Z,97701.19
2022-11-04T16:31:11.311Z,97704.72
2022-11-04T16:34:13.341Z,97707.47
2022-11-04T16:37:15.509Z,97710.13
2022-11-04T16:40:17.686Z,97711.84
2022-11-04T16:43:21.212Z,97722.59
2022-11-04T16:46:35.786Z,97721.84
2022-11-04T16:49:37.412Z,97728.03
2022-11-04T16:52:43.153Z,97738.03
2022-11-04T16:55:46.263Z,97731.03
2022-11-04T16:58:47.848Z,97737.31
2022-11-04T17:01:50.731Z,97727.63
2022-11-04T17:04:55.260Z,97740.00
2022-11-04T17:08:04.420Z,97743.78
2022-11-04T17:11:06.530Z,97744.13
2022-11-04T17:14:08.183Z,97746.41
2022-11-04T17:17:11.246Z,97757.31
2022-11-04T17:20:14.188Z,97768.56
2022-11-04T17:23:15.961Z,97773.31
2022-11-04T17:26:17.514Z,97776.06
2022-11-04T17:29:19.000Z,97790.47
2022-11-04T17:32:21.928Z,97784.66
2022-11-04T17:35:23.421Z,97797.69
2022-11-04T17:38:26.116Z,97799.06
2022-11-04T17:41:46.306Z,97796.88
2022-11-04T17:44:47.776Z,97793.69
2022-11-04T17:47:50.700Z,97782.72
2022-11-04T17:50:52.236Z,97783.50
2022-11-04T17:53:53.955Z,97796.78
2022-11-04T17:56:56.086Z,97800.41
2022-11-04T17:59:57.546Z,97801.16
2022-11-04T18:03:00.723Z,97806.28
2022-11-04T18:06:02.851Z,97810.28
2022-11-04T18:09:04.405Z,97813.00
2022-11-04T18:12:25.139Z,97811.13
2022-11-04T18:15:26.713Z,97823.97
2022-11-04T18:18:29.693Z,97818.56
2022-11-04T18:21:32.216Z,97816.84
2022-11-04T18:24:34.288Z,97817.81
2022-11-04T18:27:37.022Z,97813.63
2022-11-04T18:30:38.962Z,97818.16
2022-11-04T18:33:43.081Z,97825.38
2022-11-04T18:36:45.377Z,97833.50
2022-11-04T18:39:47.019Z,97840.63
2022-11-04T18:42:48.555Z,97836.50
2022-11-04T18:45:50.529Z,97839.16
2022-11-04T18:48:53.622Z,97828.81
2022-11-04T18:51:55.332Z,97832.56
2022-11-04T18:54:56.860Z,97843.91
2022-11-04T18:57:58.598Z,97838.69
2022-11-04T19:01:00.294Z,97845.09
2022-11-04T19:04:03.795Z,97845.88
2022-11-04T19:07:05.242Z,97854.03
2022-11-04T19:10:07.217Z,97855.88
2022-11-04T19:13:17.928Z,97856.59
2022-11-04T19:16:19.430Z,97854.78
2022-11-04T19:19:22.414Z,97867.31
2022-11-04T19:22:23.963Z,97878.22
2022-11-04T19:25:25.496Z,97887.06
2022-11-04T19:28:40.379Z,97887.22
2022-11-04T19:31:48.830Z,97897.78
2022-11-04T19:34:51.839Z,97899.50
2022-11-04T19:37:54.040Z,97899.50
2022-11-04T19:40:55.901Z,97906.69
2022-11-04T19:43:57.760Z,97903.88
2022-11-04T19:46:59.243Z,97910.13
2022-11-04T19:50:02.326Z,97914.94
2022-11-04T19:53:03.805Z,97911.34
2022-11-04T19:56:05.567Z,97914.19
2022-11-04T19:59:08.341Z,97912.53
2022-11-04T20:02:10.128Z,97919.66
2022-11-04T20:05:13.189Z,97926.84
2022-11-04T20:08:14.756Z,97924.47
2022-11-04T20:11:17.564Z,97927.22
2022-11-04T20:14:19.298Z,97930.72
2022-11-04T20:17:21.026Z,97925.56
2022-11-04T20:20:23.927Z,97927.44
2022-11-04T20:23:25.517Z,97937.34
2022-11-04T20:26:28.084Z,97948.28
2022-11-04T20:29:29.634Z,97940.50
2022-11-04T20:32:32.137Z,97947.72
2022-11-04T20:35:35.327Z,97948.63
2022-11-04T20:38:37.286Z,97946.22
2022-11-04T20:41:39.005Z,97953.25
2022-11-04T20:44:40.731Z,97954.22
2022-11-04T20:47:42.705Z,97962.19
2022-11-04T20:50:45.543Z,97963.06
2022-11-04T20:53:48.069Z,97961.34
2022-11-04T20:56:49.608Z,97972.84
2022-11-04T20:59:51.154Z,97979.09
2022-11-04T21:02:52.850Z,97981.97
2022-11-04T21:05:57.523Z,97987.53
2022-11-04T21:08:59.367Z,97992.16
2022-11-04T21:12:00.829Z,97995.50
2022-11-04T21:15:02.347Z,97990.50
2022-11-04T21:18:04.058Z,98005.06
2022-11-04T21:21:08.072Z,98001.63
2022-11-04T21:24:11.336Z,98008.72
2022-11-04T21:27:12.873Z,98002.66
2022-11-04T21:30:14.314Z,98010.78
2022-11-04T21:33:15.870Z,98017.09
2022-11-04T21:36:19.277Z,98018.88
2022-11-04T21:39:20.811Z,98022.34
2022-11-04T21:42:22.421Z,98026.94
2022-11-04T21:45:24.049Z,98027.00
2022-11-04T21:48:25.644Z,98035.16
2022-11-04T21:51:29.927Z,98033.50
2022-11-04T21:54:31.719Z,98033.50
2022-11-04T21:57:34.578Z,98041.31
2022-11-04T22:00:36.021Z,98047.31
2022-11-04T22:03:37.673Z,98046.50
2022-11-04T22:06:40.744Z,98035.88
2022-11-04T22:09:42.416Z,98040.31
2022-11-04T22:12:50.040Z,98044.13
2022-11-04T22:15:58.733Z,98052.16
2022-11-04T22:19:01.818Z,98049.56
2022-11-04T22:22:04.693Z,98037.94
2022-11-04T22:25:07.761Z,98049.63
2022-11-04T22:28:09.347Z,98048.88
2022-11-04T22:31:11.831Z,98053.34
2022-11-04T22:34:13.371Z,98057.78
2022-11-04T22:37:16.238Z,98058.84
2022-11-04T22:40:17.910Z,98058.97
2022-11-04T22:43:21.266Z,98060.72
2022-11-04T22:46:23.885Z,98062.56
2022-11-04T22:49:25.434Z,98060.03
2022-11-04T22:52:28.808Z,98061.91
2022-11-04T22:55:30.640Z,98070.88
2022-11-04T22:58:32.213Z,98076.22
2022-11-04T23:01:34.351Z,98078.84
2022-11-04T23:04:37.803Z,98077.03
2022-11-04T23:07:41.497Z,98068.13
2022-11-04T23:11:01.348Z,98066.50
2022-11-04T23:14:21.611Z,98074.56
2022-11-04T23:17:42.527Z,98086.16
2022-11-04T23:20:44.021Z,98087.28
2022-11-04T23:24:16.647Z,98095.28
2022-11-04T23:27:37.870Z,98096.22
2022-11-04T23:30:40.412Z,98099.88
2022-11-04T23:34:00.361Z,98102.53
2022-11-04T23:37:13.926Z,98101.81
2022-11-04T23:40:17.231Z,98106.34
2022-11-04T23:43:18.766Z,98107.28
2022-11-04T23:46:43.035Z,98107.22
2022-11-04T23:50:06.649Z,98117.16
2022-11-04T23:53:26.452Z,98115.31
2022-11-04T23:56:48.257Z,98121.41
